createdAt,value
2023-01-21T00:05:09.479Z,9.10
2023-01-21T00:11:15.309Z,7.70
2023-01-21T00:17:16.849Z,9.00
2023-01-21T00:23:18.424Z,6.20
2023-01-21T00:29:21.051Z,8.40
2023-01-21T00:35:22.406Z,6.10
2023-01-21T00:41:24.000Z,7.20
2023-01-21T00:47:25.589Z,7.80
2023-01-21T00:53:28.392Z,7.60
2023-01-21T00:59:29.733Z,7.40
2023-01-21T01:05:31.611Z,8.20
2023-01-21T01:11:33.051Z,6.40
2023-01-21T01:17:34.569Z,7.90
2023-01-21T01:23:36.058Z,6.30
2023-01-21T01:29:38.837Z,6.00
2023-01-21T01:35:48.699Z,6.30
2023-01-21T01:41:50.246Z,6.10
2023-01-21T01:47:59.238Z,6.00
2023-01-21T01:54:05.643Z,5.50
2023-01-21T02:00:10.601Z,6.60
2023-01-21T02:06:22.576Z,6.50
2023-01-21T02:12:24.412Z,8.00
2023-01-21T02:18:43.858Z,6.60
2023-01-21T02:25:09.909Z,6.60
2023-01-21T02:31:22.683Z,6.20
2023-01-21T02:37:32.620Z,5.80
2023-01-21T02:43:52.192Z,5.00
2023-01-21T02:50:27.881Z,6.20
2023-01-21T03:02:44.356Z,6.70
2023-01-21T03:09:01.646Z,5.30
2023-01-21T03:15:39.658Z,5.40
2023-01-21T03:21:42.159Z,5.50
2023-01-21T03:27:45.907Z,5.30
2023-01-21T03:33:49.426Z,4.80
2023-01-21T03:40:14.425Z,5.90
2023-01-21T03:46:28.937Z,5.00
2023-01-21T03:52:30.605Z,4.60
2023-01-21T03:58:34.976Z,5.20
2023-01-21T04:04:46.500Z,5.50
2023-01-21T04:10:47.875Z,5.10
2023-01-21T04:16:49.408Z,4.10
2023-01-21T04:22:50.906Z,4.00
2023-01-21T04:36:22.235Z,2.80
2023-01-21T04:42:23.753Z,3.20
2023-01-21T04:48:25.365Z,3.60
2023-01-21T04:54:26.957Z,2.80
2023-01-21T05:00:28.884Z,2.90
2023-01-21T05:06:33.510Z,2.20
2023-01-21T05:12:35.140Z,2.20
2023-01-21T05:18:37.201Z,3.00
2023-01-21T05:24:38.759Z,2.10
2023-01-21T05:30:41.747Z,2.50
2023-01-21T05:36:44.235Z,2.50
2023-01-21T05:42:45.941Z,2.00
2023-01-21T05:48:50.184Z,2.00
2023-01-21T05:55:01.227Z,2.50
2023-01-21T06:01:04.071Z,1.90
2023-01-21T06:07:05.670Z,2.80
2023-01-21T06:13:08.663Z,2.30
2023-01-21T06:19:10.103Z,2.30
2023-01-21T06:25:11.749Z,2.30
2023-01-21T06:31:23.609Z,3.10
2023-01-21T06:37:25.489Z,1.70
2023-01-21T06:43:26.930Z,2.30
2023-01-21T06:49:28.343Z,2.60
2023-01-21T06:55:30.376Z,2.60
2023-01-21T07:01:32.728Z,3.20
2023-01-21T07:07:34.843Z,3.50
2023-01-21T07:13:36.792Z,1.60
2023-01-21T07:19:41.349Z,2.40
2023-01-21T07:25:42.904Z,2.20
2023-01-21T07:31:44.791Z,2.70
2023-01-21T07:37:46.539Z,3.30
2023-01-21T07:43:51.252Z,3.50
2023-01-21T07:49:53.435Z,2.60
2023-01-21T07:55:55.258Z,3.30
2023-01-21T08:02:17.137Z,3.60
2023-01-21T08:08:29.966Z,3.10
2023-01-21T08:14:35.208Z,5.60
2023-01-21T08:20:37.256Z,3.40
2023-01-21T08:26:56.385Z,3.50
2023-01-21T08:32:58.081Z,3.40
2023-01-21T08:39:05.018Z,2.80
2023-01-21T08:45:17.386Z,3.20
2023-01-21T08:51:19.155Z,4.10
2023-01-21T08:57:20.827Z,4.70
2023-01-21T09:03:22.535Z,3.90
2023-01-21T09:09:23.966Z,5.80
2023-01-21T09:15:25.485Z,3.40
2023-01-21T09:21:28.698Z,4.30
2023-01-21T09:27:30.185Z,4.30
2023-01-21T09:33:33.168Z,3.70
2023-01-21T09:39:35.862Z,4.10
2023-01-21T09:45:38.259Z,4.90
2023-01-21T09:51:52.488Z,6.60
2023-01-21T09:58:15.154Z,8.70
2023-01-21T10:04:39.073Z,10.20
2023-01-21T10:10:50.913Z,8.70
2023-01-21T10:17:10.650Z,10.80
2023-01-21T10:23:24.245Z,10.30
2023-01-21T10:29:26.762Z,11.00
2023-01-21T10:35:41.217Z,11.50
2023-01-21T10:41:48.934Z,10.90
2023-01-21T10:48:28.900Z,10.70
2023-01-21T10:54:40.791Z,12.00
2023-01-21T11:00:46.697Z,10.80
2023-01-21T11:07:08.884Z,11.90
2023-01-21T11:13:12.980Z,10.60
2023-01-21T11:19:32.896Z,12.00
2023-01-21T11:25:40.751Z,13.30
2023-01-21T11:31:44.629Z,11.70
2023-01-21T11:37:46.252Z,13.90
2023-01-21T11:43:51.187Z,14.00
2023-01-21T11:49:52.617Z,13.50
2023-01-21T11:55:56.541Z,11.40
2023-01-21T12:02:42.627Z,12.00
2023-01-21T12:08:48.310Z,13.40
2023-01-21T12:14:58.679Z,12.60
2023-01-21T12:21:06.316Z,13.50
2023-01-21T12:27:26.690Z,12.60
2023-01-21T12:33:31.732Z,13.10
2023-01-21T12:39:36.298Z,14.00
2023-01-21T12:45:45.462Z,13.40
2023-01-21T12:52:29.954Z,12.20
2023-01-21T12:58:35.981Z,15.20
2023-01-21T13:05:08.788Z,11.80
2023-01-21T13:11:17.716Z,11.30
2023-01-21T13:17:26.478Z,14.70
2023-01-21T13:23:39.362Z,15.00
2023-01-21T13:30:09.460Z,14.90
2023-01-21T13:36:14.766Z,14.90
2023-01-21T13:42:47.792Z,12.10
2023-01-21T13:49:32.930Z,14.40
2023-01-21T13:56:10.928Z,11.40
2023-01-21T14:02:21.874Z,10.50
2023-01-21T14:08:31.528Z,13.40
2023-01-21T14:15:01.063Z,13.90
2023-01-21T14:21:21.128Z,13.80
2023-01-21T14:27:36.923Z,14.50
2023-01-21T14:34:01.275Z,13.00
2023-01-21T14:40:23.179Z,14.30
2023-01-21T14:46:32.062Z,13.80
2023-01-21T14:52:39.376Z,14.10
2023-01-21T14:58:45.436Z,13.80
2023-01-21T15:05:20.794Z,16.30
2023-01-21T15:11:36.606Z,14.60
2023-01-21T15:17:53.069Z,15.30
2023-01-21T15:24:13.528Z,14.40
2023-01-21T15:30:15.000Z,17.10
2023-01-21T15:36:19.705Z,16.80
2023-01-21T15:42:29.775Z,18.60
2023-01-21T15:49:04.829Z,17.80
2023-01-21T15:55:35.048Z,19.20
2023-01-21T16:01:38.697Z,17.20
2023-01-21T16:07:55.326Z,19.60
2023-01-21T16:14:13.043Z,18.20
2023-01-21T16:20:16.759Z,19.90
2023-01-21T16:26:32.985Z,23.50
2023-01-21T16:32:38.173Z,22.30
2023-01-21T16:38:41.388Z,18.40
2023-01-21T16:44:42.814Z,18.30
2023-01-21T16:50:46.858Z,20.60
2023-01-21T16:57:00.809Z,20.30
2023-01-21T17:03:04.049Z,18.70
2023-01-21T17:09:26.143Z,17.80
2023-01-21T17:15:35.672Z,18.50
2023-01-21T17:21:45.695Z,18.80
2023-01-21T17:27:55.121Z,21.50
2023-01-21T17:34:18.613Z,23.40
2023-01-21T17:40:24.898Z,19.10
2023-01-21T17:46:27.315Z,22.20
2023-01-21T17:52:29.600Z,24.60
2023-01-21T17:58:31.193Z,21.90
2023-01-21T18:04:32.742Z,20.70
2023-01-21T18:10:36.793Z,22.00
2023-01-21T18:16:44.188Z,20.80
2023-01-21T18:22:46.775Z,20.40
2023-01-21T18:28:52.843Z,22.70
2023-01-21T18:34:55.357Z,22.20
2023-01-21T18:40:57.309Z,22.30
2023-01-21T18:46:59.583Z,20.60
2023-01-21T18:53:09.208Z,20.50
2023-01-21T18:59:17.226Z,21.60
2023-01-21T19:05:51.655Z,19.50
2023-01-21T19:12:30.193Z,22.40
2023-01-21T19:19:05.240Z,21.30
2023-01-21T19:25:07.597Z,23.80
2023-01-21T19:31:09.544Z,22.80
2023-01-21T19:37:15.862Z,21.40
2023-01-21T19:49:25.061Z,22.10
2023-01-21T19:55:27.382Z,24.30
2023-01-21T20:01:32.033Z,26.00
2023-01-21T20:07:39.212Z,24.40
2023-01-21T20:13:43.030Z,26.20
2023-01-21T20:20:20.314Z,27.00
2023-01-21T20:26:25.794Z,26.80
2023-01-21T20:32:28.073Z,28.90
2023-01-21T20:38:35.141Z,38.70
2023-01-21T20:44:41.551Z,43.60
2023-01-21T20:50:43.050Z,53.00
2023-01-21T20:56:45.050Z,48.20
2023-01-21T21:03:10.484Z,49.40
2023-01-21T21:09:48.807Z,46.30
2023-01-21T21:16:33.221Z,45.30
2023-01-21T21:22:40.885Z,44.10
2023-01-21T21:28:44.524Z,44.40
2023-01-21T21:34:46.271Z,39.50
2023-01-21T21:40:52.180Z,40.80
2023-01-21T21:47:14.927Z,43.30
2023-01-21T21:53:21.405Z,40.00
2023-01-21T21:59:34.963Z,40.30
2023-01-21T22:05:37.255Z,39.90
2023-01-21T22:11:40.074Z,41.00
2023-01-21T22:17:52.196Z,41.80
2023-01-21T22:23:59.608Z,39.80
2023-01-21T22:30:13.275Z,36.50
2023-01-21T22:42:32.608Z,35.90
2023-01-21T22:48:51.721Z,39.60
2023-01-21T22:55:04.751Z,37.40
2023-01-21T23:01:30.532Z,38.60
2023-01-21T23:07:53.273Z,40.70
2023-01-21T23:13:57.962Z,39.70
2023-01-21T23:20:02.750Z,37.50
2023-01-21T23:26:06.062Z,36.00
2023-01-21T23:32:24.101Z,37.80
2023-01-21T23:38:33.701Z,34.50
2023-01-21T23:44:38.606Z,33.80
2023-01-21T23:51:04.312Z,33.60
2023-01-21T23:57:10.646Z,33.40
